createdAt,value
2022-10-01T00:01:13.195Z,5.86
2022-10-01T00:03:40.093Z,5.88
2022-10-01T00:06:21.097Z,5.89
2022-10-01T00:08:49.705Z,5.92
2022-10-01T00:11:21.925Z,5.94
2022-10-01T00:13:48.598Z,5.96
2022-10-01T00:16:18.698Z,6.02
2022-10-01T00:18:46.759Z,6.05
2022-10-01T00:21:16.557Z,6.07
2022-10-01T00:23:43.611Z,6.10
2022-10-01T00:26:15.431Z,6.10
2022-10-01T00:28:43.851Z,6.13
2022-10-01T00:31:11.072Z,6.17
2022-10-01T00:33:38.485Z,6.17
2022-10-01T00:36:06.680Z,6.21
2022-10-01T00:38:34.249Z,6.21
2022-10-01T00:41:01.540Z,6.19
2022-10-01T00:43:34.901Z,6.18
2022-10-01T00:46:07.803Z,6.20
2022-10-01T00:48:44.513Z,6.22
2022-10-01T00:51:13.529Z,6.26
2022-10-01T00:53:41.136Z,6.30
2022-10-01T00:56:07.714Z,6.31
2022-10-01T00:58:34.281Z,6.30
2022-10-01T01:01:00.865Z,6.32
2022-10-01T01:03:28.176Z,6.35
2022-10-01T01:05:54.682Z,6.33
2022-10-01T01:08:21.228Z,6.33
2022-10-01T01:11:04.364Z,6.37
2022-10-01T01:13:33.904Z,6.40
2022-10-01T01:16:09.258Z,6.40
2022-10-01T01:18:52.794Z,6.43
2022-10-01T01:21:36.875Z,6.43
2022-10-01T01:24:12.768Z,6.46
2022-10-01T01:27:21.888Z,6.49
2022-10-01T01:29:53.010Z,6.54
2022-10-01T01:32:24.014Z,6.54
2022-10-01T01:34:52.786Z,6.61
2022-10-01T01:37:25.205Z,6.63
2022-10-01T01:39:56.151Z,6.65
2022-10-01T01:42:31.362Z,6.71
2022-10-01T01:45:01.667Z,6.75
2022-10-01T01:47:30.519Z,6.75
2022-10-01T01:49:58.535Z,6.77
2022-10-01T01:52:25.153Z,6.82
2022-10-01T01:54:52.129Z,6.86
2022-10-01T01:57:20.252Z,6.90
2022-10-01T01:59:47.246Z,6.94
2022-10-01T02:02:28.691Z,7.02
2022-10-01T02:05:02.143Z,7.04
2022-10-01T02:07:48.928Z,7.08
2022-10-01T02:10:37.334Z,7.10
2022-10-01T02:13:47.195Z,7.13
2022-10-01T02:16:39.903Z,7.15
2022-10-01T02:19:33.727Z,7.17
2022-10-01T02:22:11.973Z,7.20
2022-10-01T02:24:49.290Z,7.20
2022-10-01T02:27:23.665Z,7.20
2022-10-01T02:29:51.147Z,7.21
2022-10-01T02:32:19.573Z,7.23
2022-10-01T02:34:49.382Z,7.22
2022-10-01T02:37:20.635Z,7.24
2022-10-01T02:39:47.992Z,7.25
2022-10-01T02:42:16.705Z,7.25
2022-10-01T02:44:45.517Z,7.22
2022-10-01T02:47:44.581Z,7.22
2022-10-01T02:50:12.986Z,7.25
2022-10-01T02:52:52.676Z,7.24
2022-10-01T02:55:30.005Z,7.24
2022-10-01T02:57:57.501Z,7.24
2022-10-01T03:00:26.976Z,7.23
2022-10-01T03:02:53.776Z,7.25
2022-10-01T03:05:20.829Z,7.26
2022-10-01T03:07:48.078Z,7.28
2022-10-01T03:10:16.194Z,7.26
2022-10-01T03:12:46.431Z,7.26
2022-10-01T03:15:15.458Z,7.24
2022-10-01T03:17:42.463Z,7.28
2022-10-01T03:20:09.949Z,7.28
2022-10-01T03:22:36.712Z,7.30
2022-10-01T03:25:04.291Z,7.33
2022-10-01T03:27:30.852Z,7.31
2022-10-01T03:29:57.424Z,7.32
2022-10-01T03:32:24.148Z,7.34
2022-10-01T03:34:51.265Z,7.34
2022-10-01T03:37:17.814Z,7.33
2022-10-01T03:39:44.848Z,7.33
2022-10-01T03:42:11.340Z,7.32
2022-10-01T03:44:37.848Z,7.35
2022-10-01T03:47:04.462Z,7.36
2022-10-01T03:49:30.996Z,7.36
2022-10-01T03:51:57.501Z,7.40
2022-10-01T03:54:25.238Z,7.41
2022-10-01T03:56:52.300Z,7.45
2022-10-01T03:59:19.346Z,7.42
2022-10-01T04:01:46.022Z,7.43
2022-10-01T04:04:12.617Z,7.41
2022-10-01T04:06:39.180Z,7.40
2022-10-01T04:09:05.716Z,7.39
2022-10-01T04:11:32.582Z,7.41
2022-10-01T04:13:59.538Z,7.45
2022-10-01T04:16:26.162Z,7.47
2022-10-01T04:18:52.757Z,7.46
2022-10-01T04:21:19.307Z,7.48
2022-10-01T04:23:46.006Z,7.50
2022-10-01T04:26:12.758Z,7.51
2022-10-01T04:28:39.321Z,7.48
2022-10-01T04:31:24.650Z,7.49
2022-10-01T04:33:56.699Z,7.51
2022-10-01T04:36:24.604Z,7.55
2022-10-01T04:38:54.675Z,7.56
2022-10-01T04:41:23.486Z,7.56
2022-10-01T04:43:50.163Z,7.57
2022-10-01T04:46:16.908Z,7.57
2022-10-01T04:48:43.889Z,7.57
2022-10-01T04:51:10.476Z,7.57
2022-10-01T04:53:36.989Z,7.58
2022-10-01T04:56:03.499Z,7.59
2022-10-01T04:58:31.417Z,7.58
2022-10-01T05:01:01.778Z,7.60
2022-10-01T05:03:28.915Z,7.59
2022-10-01T05:05:55.500Z,7.64
2022-10-01T05:08:22.553Z,7.63
2022-10-01T05:10:49.015Z,7.64
2022-10-01T05:13:15.588Z,7.64
2022-10-01T05:15:42.100Z,7.66
2022-10-01T05:18:08.602Z,7.64
2022-10-01T05:20:35.257Z,7.65
2022-10-01T05:23:01.813Z,7.69
2022-10-01T05:25:28.474Z,7.66
2022-10-01T05:28:05.682Z,7.69
2022-10-01T05:30:33.870Z,7.66
2022-10-01T05:33:04.448Z,7.69
2022-10-01T05:35:31.625Z,7.69
2022-10-01T05:38:00.360Z,7.73
2022-10-01T05:40:28.598Z,7.71
2022-10-01T05:43:00.139Z,7.71
2022-10-01T05:45:31.368Z,7.69
2022-10-01T05:48:03.040Z,7.73
2022-10-01T05:50:33.842Z,7.72
2022-10-01T05:53:01.470Z,7.75
2022-10-01T05:55:34.776Z,7.73
2022-10-01T05:58:11.892Z,7.73
2022-10-01T06:00:40.187Z,7.73
2022-10-01T06:03:07.793Z,7.75
2022-10-01T06:05:35.740Z,7.76
2022-10-01T06:08:05.431Z,7.79
2022-10-01T06:10:31.992Z,7.80
2022-10-01T06:13:01.797Z,7.83
2022-10-01T06:15:31.794Z,7.88
2022-10-01T06:18:02.418Z,7.87
2022-10-01T06:20:28.938Z,7.89
2022-10-01T06:22:57.766Z,7.93
2022-10-01T06:25:25.999Z,7.95
2022-10-01T06:27:58.083Z,8.00
2022-10-01T06:30:29.181Z,7.96
2022-10-01T06:33:10.263Z,7.99
2022-10-01T06:35:50.415Z,8.00
2022-10-01T06:38:20.069Z,8.01
2022-10-01T06:40:53.782Z,8.03
2022-10-01T06:43:21.093Z,8.00
2022-10-01T06:45:48.214Z,8.00
2022-10-01T06:48:16.924Z,8.00
2022-10-01T06:50:44.917Z,7.99
2022-10-01T06:53:13.146Z,8.01
2022-10-01T06:55:40.435Z,8.02
2022-10-01T06:58:19.060Z,8.06
2022-10-01T07:00:47.582Z,8.08
2022-10-01T07:03:16.789Z,8.10
2022-10-01T07:05:43.408Z,8.14
2022-10-01T07:08:09.970Z,8.15
2022-10-01T07:10:38.076Z,8.18
2022-10-01T07:13:20.245Z,8.20
2022-10-01T07:15:47.180Z,8.21
2022-10-01T07:18:14.194Z,8.22
2022-10-01T07:20:41.861Z,8.23
2022-10-01T07:23:12.004Z,8.23
2022-10-01T07:25:40.211Z,8.26
2022-10-01T07:28:16.106Z,8.24
2022-10-01T07:30:47.380Z,8.25
2022-10-01T07:33:17.974Z,8.29
2022-10-01T07:35:45.221Z,8.26
2022-10-01T07:38:11.749Z,8.30
2022-10-01T07:40:38.310Z,8.30
2022-10-01T07:43:05.264Z,8.32
2022-10-01T07:45:31.869Z,8.34
2022-10-01T07:48:01.503Z,8.34
2022-10-01T07:50:32.660Z,8.40
2022-10-01T07:52:59.457Z,8.43
2022-10-01T07:55:28.870Z,8.47
2022-10-01T07:58:02.301Z,8.45
2022-10-01T08:00:30.917Z,8.47
2022-10-01T08:02:57.665Z,8.50
2022-10-01T08:05:30.435Z,8.51
2022-10-01T08:08:01.942Z,8.54
2022-10-01T08:10:29.110Z,8.55
2022-10-01T08:13:06.182Z,8.58
2022-10-01T08:15:32.684Z,8.60
2022-10-01T08:18:03.497Z,8.61
2022-10-01T08:20:30.552Z,8.61
2022-10-01T08:23:04.538Z,8.70
2022-10-01T08:25:31.460Z,8.70
2022-10-01T08:27:58.376Z,8.76
2022-10-01T08:30:25.617Z,8.77
2022-10-01T08:32:56.438Z,8.81
2022-10-01T08:35:24.155Z,8.83
2022-10-01T08:37:50.721Z,8.82
2022-10-01T08:40:21.617Z,8.87
2022-10-01T08:42:59.401Z,8.89
2022-10-01T08:45:32.035Z,8.89
2022-10-01T08:48:19.284Z,8.95
2022-10-01T08:51:05.057Z,9.02
2022-10-01T08:53:37.491Z,9.03
2022-10-01T08:56:04.562Z,9.08
2022-10-01T08:58:45.280Z,9.09
2022-10-01T09:01:12.198Z,9.10
2022-10-01T09:03:40.173Z,9.14
2022-10-01T09:06:27.674Z,9.16
2022-10-01T09:09:11.998Z,9.22
2022-10-01T09:11:42.141Z,9.24
2022-10-01T09:14:40.028Z,9.26
2022-10-01T09:17:31.830Z,9.28
2022-10-01T09:20:01.602Z,9.32
2022-10-01T09:22:45.003Z,9.39
2022-10-01T09:25:22.732Z,9.45
2022-10-01T09:27:51.533Z,9.48
2022-10-01T09:30:21.756Z,9.54
2022-10-01T09:33:03.879Z,9.60
2022-10-01T09:35:49.133Z,9.59
2022-10-01T09:39:20.613Z,9.61
2022-10-01T09:41:48.453Z,9.63
2022-10-01T09:44:29.457Z,9.68
2022-10-01T09:46:56.374Z,9.72
2022-10-01T09:49:35.069Z,9.76
2022-10-01T09:52:06.323Z,9.78
2022-10-01T09:54:43.200Z,9.78
2022-10-01T09:57:14.779Z,9.81
2022-10-01T09:59:50.756Z,9.88
2022-10-01T10:02:26.910Z,9.93
2022-10-01T10:05:04.320Z,9.96
2022-10-01T10:07:32.596Z,10.01
2022-10-01T10:10:10.573Z,10.03
2022-10-01T10:12:37.289Z,10.04
2022-10-01T10:15:16.866Z,10.06
2022-10-01T10:17:46.361Z,10.06
2022-10-01T10:20:23.801Z,10.12
2022-10-01T10:22:50.486Z,10.15
2022-10-01T10:25:24.659Z,10.22
2022-10-01T10:27:56.086Z,10.23
2022-10-01T10:30:24.753Z,10.29
2022-10-01T10:32:53.641Z,10.31
2022-10-01T10:35:28.465Z,10.38
2022-10-01T10:37:57.425Z,10.40
2022-10-01T10:40:32.553Z,10.46
2022-10-01T10:42:59.515Z,10.49
2022-10-01T10:45:33.490Z,10.59
2022-10-01T10:48:02.472Z,10.63
2022-10-01T10:50:32.097Z,10.67
2022-10-01T10:52:59.426Z,10.76
2022-10-01T10:55:31.336Z,10.84
2022-10-01T10:58:14.528Z,10.87
2022-10-01T11:00:48.321Z,10.92
2022-10-01T11:03:17.027Z,10.95
2022-10-01T11:05:43.912Z,11.01
2022-10-01T11:08:18.979Z,11.09
2022-10-01T11:10:57.688Z,11.12
2022-10-01T11:13:39.313Z,11.14
2022-10-01T11:16:34.388Z,11.15
2022-10-01T11:19:12.385Z,11.19
2022-10-01T11:21:57.740Z,11.23
2022-10-01T11:24:52.426Z,11.27
2022-10-01T11:27:44.422Z,11.35
2022-10-01T11:30:15.411Z,11.41
2022-10-01T11:33:00.610Z,11.44
2022-10-01T11:35:35.098Z,11.47
2022-10-01T11:38:13.496Z,11.51
2022-10-01T11:40:41.920Z,11.50
2022-10-01T11:43:16.900Z,11.49
2022-10-01T11:45:48.565Z,11.55
2022-10-01T11:48:44.656Z,11.58
2022-10-01T11:51:20.033Z,11.61
2022-10-01T11:53:52.715Z,11.67
2022-10-01T11:56:52.749Z,11.69
2022-10-01T11:59:34.586Z,11.68
2022-10-01T12:02:15.472Z,11.70
2022-10-01T12:05:01.899Z,11.75
2022-10-01T12:07:43.781Z,11.80
2022-10-01T12:10:36.349Z,11.87
2022-10-01T12:13:22.506Z,11.89
2022-10-01T12:16:06.861Z,11.93
2022-10-01T12:18:44.200Z,11.91
2022-10-01T12:21:30.079Z,11.95
2022-10-01T12:24:05.191Z,11.92
2022-10-01T12:26:58.748Z,11.93
2022-10-01T12:29:37.425Z,11.99
2022-10-01T12:32:33.500Z,12.08
2022-10-01T12:35:42.237Z,12.15
2022-10-01T12:38:27.441Z,12.21
2022-10-01T12:41:06.973Z,12.41
2022-10-01T12:44:09.025Z,12.58
2022-10-01T12:47:02.453Z,12.76
2022-10-01T12:49:37.957Z,12.75
2022-10-01T12:52:25.832Z,12.78
2022-10-01T12:55:34.256Z,12.78
2022-10-01T12:58:28.362Z,12.81
2022-10-01T13:01:04.456Z,12.77
2022-10-01T13:04:08.773Z,12.75
2022-10-01T13:06:58.239Z,12.77
2022-10-01T13:09:48.974Z,12.77
2022-10-01T13:12:51.523Z,12.83
2022-10-01T13:15:23.008Z,12.73
2022-10-01T13:17:49.497Z,12.58
2022-10-01T13:20:44.172Z,12.56
2022-10-01T13:23:44.897Z,12.71
2022-10-01T13:26:27.926Z,12.88
2022-10-01T13:29:26.989Z,13.07
2022-10-01T13:32:01.940Z,13.13
2022-10-01T13:34:46.577Z,13.25
2022-10-01T13:37:34.994Z,13.37
2022-10-01T13:40:02.307Z,13.45
2022-10-01T13:42:36.950Z,13.86
2022-10-01T13:45:06.443Z,14.23
2022-10-01T13:47:40.930Z,14.22
2022-10-01T13:50:23.911Z,14.18
2022-10-01T13:53:16.553Z,14.14
2022-10-01T13:55:46.333Z,14.14
2022-10-01T13:58:38.930Z,14.10
2022-10-01T14:01:24.085Z,14.10
2022-10-01T14:03:53.768Z,14.13
2022-10-01T14:06:42.688Z,14.14
2022-10-01T14:09:19.555Z,14.14
2022-10-01T14:12:20.658Z,14.10
2022-10-01T14:15:13.914Z,14.04
2022-10-01T14:17:43.125Z,14.03
2022-10-01T14:20:18.374Z,14.12
2022-10-01T14:22:49.463Z,14.10
2022-10-01T14:25:41.963Z,14.07
2022-10-01T14:28:23.582Z,14.02
2022-10-01T14:31:12.146Z,13.95
2022-10-01T14:34:09.393Z,13.89
2022-10-01T14:36:44.257Z,13.79
2022-10-01T14:39:24.270Z,13.73
2022-10-01T14:41:53.328Z,13.65
2022-10-01T14:44:32.003Z,13.59
2022-10-01T14:46:59.916Z,13.53
2022-10-01T14:49:32.054Z,13.50
2022-10-01T14:52:05.849Z,13.48
2022-10-01T14:54:47.181Z,13.51
2022-10-01T14:57:24.445Z,13.52
2022-10-01T14:59:51.244Z,13.55
2022-10-01T15:02:20.901Z,13.49
2022-10-01T15:04:57.429Z,13.53
2022-10-01T15:07:28.026Z,13.51
2022-10-01T15:10:06.054Z,13.52
2022-10-01T15:12:38.508Z,13.54
2022-10-01T15:15:15.234Z,13.50
2022-10-01T15:17:42.507Z,13.40
2022-10-01T15:20:12.088Z,13.34
2022-10-01T15:22:39.960Z,13.31
2022-10-01T15:25:06.996Z,13.29
2022-10-01T15:27:33.770Z,13.28
2022-10-01T15:30:00.719Z,13.28
2022-10-01T15:32:28.461Z,13.17
2022-10-01T15:34:58.109Z,13.14
2022-10-01T15:37:36.568Z,13.09
2022-10-01T15:40:07.673Z,13.06
2022-10-01T15:42:35.381Z,13.01
2022-10-01T15:45:08.192Z,13.04
2022-10-01T15:47:37.364Z,13.01
2022-10-01T15:50:09.897Z,13.07
2022-10-01T15:52:54.416Z,13.09
2022-10-01T15:55:39.084Z,13.06
2022-10-01T15:58:14.995Z,13.08
2022-10-01T16:00:50.724Z,13.02
2022-10-01T16:03:25.425Z,12.94
2022-10-01T16:05:56.170Z,12.92
2022-10-01T16:08:34.108Z,12.87
2022-10-01T16:11:12.915Z,12.88
2022-10-01T16:13:44.805Z,12.87
2022-10-01T16:16:14.442Z,12.88
2022-10-01T16:18:42.084Z,12.90
2022-10-01T16:21:11.088Z,12.90
2022-10-01T16:23:47.839Z,12.86
2022-10-01T16:26:36.112Z,12.79
2022-10-01T16:29:13.582Z,12.79
2022-10-01T16:31:43.874Z,12.77
2022-10-01T16:34:16.324Z,12.73
2022-10-01T16:36:44.500Z,12.69
2022-10-01T16:39:13.677Z,12.66
2022-10-01T16:41:40.992Z,12.60
2022-10-01T16:44:12.672Z,12.58
2022-10-01T16:46:39.610Z,12.57
2022-10-01T16:49:12.325Z,12.50
2022-10-01T16:51:40.933Z,12.46
2022-10-01T16:54:26.642Z,12.43
2022-10-01T16:56:55.192Z,12.35
2022-10-01T16:59:23.610Z,12.31
2022-10-01T17:01:53.629Z,12.28
2022-10-01T17:04:21.102Z,12.24
2022-10-01T17:06:48.175Z,12.24
2022-10-01T17:09:14.796Z,12.20
2022-10-01T17:11:43.904Z,12.19
2022-10-01T17:14:19.784Z,12.16
2022-10-01T17:16:47.587Z,12.13
2022-10-01T17:19:14.746Z,12.08
2022-10-01T17:21:41.770Z,12.05
2022-10-01T17:24:12.100Z,12.04
2022-10-01T17:26:45.330Z,11.99
2022-10-01T17:29:14.908Z,11.88
2022-10-01T17:31:44.712Z,11.86
2022-10-01T17:34:14.663Z,11.84
2022-10-01T17:36:41.206Z,11.80
2022-10-01T17:39:07.941Z,11.80
2022-10-01T17:41:34.599Z,11.78
2022-10-01T17:44:01.395Z,11.76
2022-10-01T17:46:29.416Z,11.73
2022-10-01T17:48:56.023Z,11.72
2022-10-01T17:51:23.751Z,11.70
2022-10-01T17:53:50.320Z,11.65
2022-10-01T17:56:18.598Z,11.66
2022-10-01T17:58:46.426Z,11.64
2022-10-01T18:01:22.279Z,11.59
2022-10-01T18:03:55.453Z,11.60
2022-10-01T18:06:23.574Z,11.58
2022-10-01T18:08:55.528Z,11.57
2022-10-01T18:11:24.181Z,11.55
2022-10-01T18:13:52.037Z,11.56
2022-10-01T18:16:19.691Z,11.53
2022-10-01T18:21:33.625Z,11.53
2022-10-01T18:24:04.233Z,11.54
2022-10-01T18:26:32.026Z,11.51
2022-10-01T18:28:58.582Z,11.52
2022-10-01T18:31:29.108Z,11.48
2022-10-01T18:33:59.878Z,11.48
2022-10-01T18:36:32.688Z,11.50
2022-10-01T18:39:10.529Z,11.48
2022-10-01T18:41:39.136Z,11.48
2022-10-01T18:44:20.276Z,11.46
2022-10-01T18:46:50.045Z,11.46
2022-10-01T18:49:44.024Z,11.48
2022-10-01T18:52:46.865Z,11.49
2022-10-01T18:55:49.452Z,11.47
2022-10-01T18:58:21.970Z,11.48
2022-10-01T19:01:02.370Z,11.48
2022-10-01T19:03:44.200Z,11.50
2022-10-01T19:06:22.874Z,11.50
2022-10-01T19:09:27.832Z,11.49
2022-10-01T19:12:17.860Z,11.46
2022-10-01T19:14:57.586Z,11.46
2022-10-01T19:17:59.458Z,11.46
2022-10-01T19:20:52.277Z,11.46
2022-10-01T19:23:34.924Z,11.45
2022-10-01T19:26:26.642Z,11.45
2022-10-01T19:29:21.019Z,11.45
2022-10-01T19:32:16.514Z,11.46
2022-10-01T19:34:45.356Z,11.47
2022-10-01T19:37:42.467Z,11.46
2022-10-01T19:40:20.710Z,11.47
2022-10-01T19:42:56.068Z,11.45
2022-10-01T19:45:54.517Z,11.45
2022-10-01T19:48:29.970Z,11.50
2022-10-01T19:51:05.093Z,11.50
2022-10-01T19:53:35.104Z,11.51
2022-10-01T19:56:03.058Z,11.48
2022-10-01T19:58:30.661Z,11.52
2022-10-01T20:01:00.300Z,11.50
2022-10-01T20:03:41.972Z,11.53
2022-10-01T20:06:30.226Z,11.50
2022-10-01T20:09:15.723Z,11.50
2022-10-01T20:11:53.034Z,11.53
2022-10-01T20:14:52.937Z,11.51
2022-10-01T20:17:40.675Z,11.51
2022-10-01T20:20:07.181Z,11.51
2022-10-01T20:22:43.926Z,11.51
2022-10-01T20:25:26.684Z,11.49
2022-10-01T20:28:25.323Z,11.50
2022-10-01T20:31:23.092Z,11.49
2022-10-01T20:34:10.659Z,11.49
2022-10-01T20:37:08.688Z,11.49
2022-10-01T20:39:44.102Z,11.50
2022-10-01T20:42:18.139Z,11.50
2022-10-01T20:44:45.426Z,11.50
2022-10-01T20:47:25.492Z,11.50
2022-10-01T20:50:00.961Z,11.49
2022-10-01T20:52:42.649Z,11.48
2022-10-01T20:55:18.160Z,11.46
2022-10-01T20:57:58.363Z,11.44
2022-10-01T21:00:27.997Z,11.45
2022-10-01T21:03:02.516Z,11.45
2022-10-01T21:05:37.136Z,11.43
2022-10-01T21:08:15.893Z,11.44
2022-10-01T21:10:53.741Z,11.44
2022-10-01T21:13:39.385Z,11.44
2022-10-01T21:16:33.829Z,11.43
2022-10-01T21:19:23.005Z,11.40
2022-10-01T21:22:11.357Z,11.41
2022-10-01T21:25:15.680Z,11.40
2022-10-01T21:28:01.727Z,11.38
2022-10-01T21:30:59.724Z,11.37
2022-10-01T21:33:38.651Z,11.36
2022-10-01T21:36:15.908Z,11.34
2022-10-01T21:39:11.287Z,11.36
2022-10-01T21:41:41.815Z,11.36
2022-10-01T21:44:36.212Z,11.36
2022-10-01T21:47:21.408Z,11.34
2022-10-01T21:50:12.036Z,11.32
2022-10-01T21:52:50.570Z,11.32
2022-10-01T21:55:40.691Z,11.30
2022-10-01T21:58:57.013Z,11.28
2022-10-01T22:01:39.960Z,11.28
2022-10-01T22:04:51.427Z,11.28
2022-10-01T22:07:24.072Z,11.28
2022-10-01T22:10:25.148Z,11.24
2022-10-01T22:12:58.728Z,11.18
2022-10-01T22:15:31.795Z,11.16
2022-10-01T22:18:02.203Z,11.17
2022-10-01T22:20:32.712Z,11.20
2022-10-01T22:23:04.385Z,11.16
2022-10-01T22:25:34.713Z,11.17
2022-10-01T22:28:07.008Z,11.17
2022-10-01T22:30:38.778Z,11.17
2022-10-01T22:33:31.607Z,11.15
2022-10-01T22:36:08.952Z,11.14
2022-10-01T22:38:38.931Z,11.14
2022-10-01T22:41:17.010Z,11.16
2022-10-01T22:43:45.717Z,11.15
2022-10-01T22:46:30.527Z,11.15
2022-10-01T22:49:20.521Z,11.15
2022-10-01T22:52:05.433Z,11.17
2022-10-01T22:54:54.033Z,11.19
2022-10-01T22:57:36.291Z,11.18
2022-10-01T23:00:08.738Z,11.21
2022-10-01T23:02:57.235Z,11.20
2022-10-01T23:06:01.497Z,11.21
2022-10-01T23:08:38.197Z,11.22
2022-10-01T23:11:04.728Z,11.24
2022-10-01T23:13:57.735Z,11.24
2022-10-01T23:16:45.988Z,11.25
2022-10-01T23:19:37.300Z,11.26
2022-10-01T23:22:22.465Z,11.26
2022-10-01T23:25:04.781Z,11.24
2022-10-01T23:27:59.305Z,11.23
2022-10-01T23:30:38.127Z,11.24
2022-10-01T23:33:41.078Z,11.23
2022-10-01T23:36:25.695Z,11.24
2022-10-01T23:39:29.704Z,11.26
2022-10-01T23:42:27.887Z,11.29
2022-10-01T23:45:03.818Z,11.29
2022-10-01T23:47:40.172Z,11.30
2022-10-01T23:50:17.740Z,11.30
2022-10-01T23:52:59.809Z,11.32
2022-10-01T23:56:19.453Z,11.32
2022-10-01T23:58:51.647Z,11.32
